PWSweather.com
Personal Weather Stations
Station Observations
KCAOCEAN4
Jeffries Ranch, Oceanside, CA 92057

Jeffries RanchOceanside, CA 92057

Lat: 33.2463208, Lon: -117.25335080000002

Elevation: 207

Station Type: Davis Vantage Vue

jeffriesranchweather.com

High Low Average
Temperature 57.0°F13.9°C 38.5°F3.6°C 52.3°F11.3°C
Dew Point 50.5°F10.3°C 21.7°F-5.7°C 36.3°F2.4°C
Winds 15.0 mph 24.1 kmh Calm Calm 7.0 mph WSW11.3 kmh WSW
Wind Gusts 25.9 mph41.7 kmh -- 14.0 mph22.5 kmh
Humidity 82% 27% 56%
Pressure 30.02 in1016.6 mb 29.81 in1009.5 mb -
Precipitation 0.00 in0.0 mm - -
Hour Temp Dew Point Humidity Winds Wind Gusts Pressure Precip Precip Rate Daily Precip Total
12:01 AM 57.0°F13.9°C 49.1°F9.5°C 75% 4.0 mph SW6.4 kmh SW 10.1 mph16.3 kmh 29.84 in1010.5 mb 0.00 in0.0 mm 0.00 in0.0 mm 0.00 in0.0 mm
12:11 AM 55.9°F13.3°C 50.5°F10.3°C 82% 6.0 mph W9.7 kmh W 16.1 mph25.9 kmh 29.85 in1010.8 mb 0.00 in0.0 mm 0.00 in0.0 mm 0.00 in0.0 mm
12:21 AM 54.9°F12.7°C 49.5°F9.7°C 82% 6.9 mph W11.1 kmh W 15.0 mph24.1 kmh 29.85 in1010.8 mb 0.00 in0.0 mm 0.00 in0.0 mm 0.00 in0.0 mm
12:31 AM 54.7°F12.6°C 48.4°F9.1°C 79% 8.9 mph W14.3 kmh W 14.1 mph22.7 kmh 29.84 in1010.5 mb 0.00 in0.0 mm 0.00 in0.0 mm 0.00 in0.0 mm
12:41 AM 54.7°F12.6°C 47.7°F8.7°C 77% 4.9 mph WSW7.9 kmh WSW 15.0 mph24.1 kmh 29.84 in1010.5 mb 0.00 in0.0 mm 0.00 in0.0 mm 0.00 in0.0 mm
12:51 AM 54.3°F12.4°C 46.9°F8.3°C 76% 6.0 mph NW9.7 kmh NW 13.0 mph20.9 kmh 29.84 in1010.5 mb 0.00 in0.0 mm 0.00 in0.0 mm 0.00 in0.0 mm
01:01 AM 54.1°F12.3°C 46.0°F7.8°C 74% 4.9 mph WSW7.9 kmh WSW 11.0 mph17.7 kmh 29.85 in1010.8 mb 0.00 in0.0 mm 0.00 in0.0 mm 0.00 in0.0 mm
01:11 AM 53.8°F12.1°C 45.7°F7.6°C 74% 6.0 mph SW9.7 kmh SW 16.1 mph25.9 kmh 29.84 in1010.5 mb 0.00 in0.0 mm 0.00 in0.0 mm 0.00 in0.0 mm
01:21 AM 53.6°F12.0°C 44.4°F6.9°C 71% 6.9 mph WSW11.1 kmh WSW 16.1 mph25.9 kmh 29.84 in1010.5 mb 0.00 in0.0 mm 0.00 in0.0 mm 0.00 in0.0 mm
01:31 AM 53.8°F12.1°C 44.2°F6.8°C 70% 6.0 mph S9.7 kmh S 14.1 mph22.7 kmh 29.84 in1010.5 mb 0.00 in0.0 mm 0.00 in0.0 mm 0.00 in0.0 mm
01:41 AM 53.4°F11.9°C 44.2°F6.8°C 71% 4.9 mph SE7.9 kmh SE 12.1 mph19.5 kmh 29.84 in1010.5 mb 0.00 in0.0 mm 0.00 in0.0 mm 0.00 in0.0 mm
01:51 AM 53.2°F11.8°C 44.4°F6.9°C 72% 4.0 mph S6.4 kmh S 10.1 mph16.3 kmh 29.83 in1010.2 mb 0.00 in0.0 mm 0.00 in0.0 mm 0.00 in0.0 mm
02:01 AM 53.4°F11.9°C 45.0°F7.2°C 73% 4.0 mph SW6.4 kmh SW 8.9 mph14.3 kmh 29.83 in1010.2 mb 0.00 in0.0 mm 0.00 in0.0 mm 0.00 in0.0 mm
02:11 AM 54.1°F12.3°C 46.4°F8.0°C 75% 4.9 mph WSW7.9 kmh WSW 12.1 mph19.5 kmh 29.83 in1010.2 mb 0.00 in0.0 mm 0.00 in0.0 mm 0.00 in0.0 mm
02:21 AM 54.3°F12.4°C 46.9°F8.3°C 76% 6.0 mph NW9.7 kmh NW 16.1 mph25.9 kmh 29.83 in1010.2 mb 0.00 in0.0 mm 0.00 in0.0 mm 0.00 in0.0 mm
02:31 AM 54.1°F12.3°C 46.4°F8.0°C 75% 6.9 mph SW11.1 kmh SW 16.1 mph25.9 kmh 29.83 in1010.2 mb 0.00 in0.0 mm 0.00 in0.0 mm 0.00 in0.0 mm
02:41 AM 54.1°F12.3°C 45.7°F7.6°C 73% 6.0 mph W9.7 kmh W 13.0 mph20.9 kmh 29.83 in1010.2 mb 0.00 in0.0 mm 0.00 in0.0 mm 0.00 in0.0 mm
02:51 AM 54.0°F12.2°C 44.8°F7.1°C 71% 6.0 mph SW9.7 kmh SW 13.0 mph20.9 kmh 29.83 in1010.2 mb 0.00 in0.0 mm 0.00 in0.0 mm 0.00 in0.0 mm
03:01 AM 54.0°F12.2°C 44.1°F6.7°C 69% 4.9 mph WNW7.9 kmh WNW 14.1 mph22.7 kmh 29.83 in1010.2 mb 0.00 in0.0 mm 0.00 in0.0 mm 0.00 in0.0 mm
03:11 AM 53.8°F12.1°C 43.5°F6.4°C 68% 4.9 mph WNW7.9 kmh WNW 14.1 mph22.7 kmh 29.83 in1010.2 mb 0.00 in0.0 mm 0.00 in0.0 mm 0.00 in0.0 mm
03:21 AM 53.4°F11.9°C 42.3°F5.7°C 66% 6.9 mph WSW11.1 kmh WSW 15.0 mph24.1 kmh 29.82 in1009.8 mb 0.00 in0.0 mm 0.00 in0.0 mm 0.00 in0.0 mm
03:31 AM 53.2°F11.8°C 41.4°F5.2°C 64% 6.0 mph WSW9.7 kmh WSW 17.0 mph27.4 kmh 29.82 in1009.8 mb 0.00 in0.0 mm 0.00 in0.0 mm 0.00 in0.0 mm
03:41 AM 53.2°F11.8°C 41.7°F5.4°C 65% 4.9 mph SW7.9 kmh SW 10.1 mph16.3 kmh 29.82 in1009.8 mb 0.00 in0.0 mm 0.00 in0.0 mm 0.00 in0.0 mm
03:51 AM 53.2°F11.8°C 42.3°F5.7°C 66% 4.0 mph W6.4 kmh W 13.0 mph20.9 kmh 29.81 in1009.5 mb 0.00 in0.0 mm 0.00 in0.0 mm 0.00 in0.0 mm
04:01 AM 53.2°F11.8°C 41.4°F5.2°C 64% 4.9 mph W7.9 kmh W 11.0 mph17.7 kmh 29.82 in1009.8 mb 0.00 in0.0 mm 0.00 in0.0 mm 0.00 in0.0 mm
04:11 AM 53.2°F11.8°C 41.4°F5.2°C 64% 4.0 mph SW6.4 kmh SW 11.0 mph17.7 kmh 29.83 in1010.2 mb 0.00 in0.0 mm 0.00 in0.0 mm 0.00 in0.0 mm
04:21 AM 53.2°F11.8°C 41.7°F5.4°C 65% 4.0 mph W6.4 kmh W 11.0 mph17.7 kmh 29.82 in1009.8 mb 0.00 in0.0 mm 0.00 in0.0 mm 0.00 in0.0 mm
04:31 AM 53.2°F11.8°C 41.7°F5.4°C 65% 2.9 mph WSW4.7 kmh WSW 8.1 mph13.0 kmh 29.82 in1009.8 mb 0.00 in0.0 mm 0.00 in0.0 mm 0.00 in0.0 mm
04:41 AM 53.2°F11.8°C 41.7°F5.4°C 65% 4.9 mph SW7.9 kmh SW 12.1 mph19.5 kmh 29.82 in1009.8 mb 0.00 in0.0 mm 0.00 in0.0 mm 0.00 in0.0 mm
04:51 AM 53.2°F11.8°C 42.3°F5.7°C 66% 6.0 mph WSW9.7 kmh WSW 13.0 mph20.9 kmh 29.82 in1009.8 mb 0.00 in0.0 mm 0.00 in0.0 mm 0.00 in0.0 mm
05:01 AM 53.2°F11.8°C 41.7°F5.4°C 65% 6.0 mph WSW9.7 kmh WSW 14.1 mph22.7 kmh 29.82 in1009.8 mb 0.00 in0.0 mm 0.00 in0.0 mm 0.00 in0.0 mm
05:11 AM 52.9°F11.6°C 40.6°F4.8°C 63% 4.9 mph NW7.9 kmh NW 17.0 mph27.4 kmh 29.83 in1010.2 mb 0.00 in0.0 mm 0.00 in0.0 mm 0.00 in0.0 mm
05:21 AM 52.5°F11.4°C 39.9°F4.4°C 62% 4.0 mph WSW6.4 kmh WSW 8.9 mph14.3 kmh 29.83 in1010.2 mb 0.00 in0.0 mm 0.00 in0.0 mm 0.00 in0.0 mm
05:31 AM 52.3°F11.3°C 40.1°F4.5°C 63% 2.9 mph WSW4.7 kmh WSW 6.9 mph11.1 kmh 29.83 in1010.2 mb 0.00 in0.0 mm 0.00 in0.0 mm 0.00 in0.0 mm
05:41 AM 52.2°F11.2°C 40.3°F4.6°C 64% 0.9 mph WNW1.4 kmh WNW 4.9 mph7.9 kmh 29.83 in1010.2 mb 0.00 in0.0 mm 0.00 in0.0 mm 0.00 in0.0 mm
05:51 AM 52.2°F11.2°C 40.3°F4.6°C 64% 0.9 mph WNW1.4 kmh WNW 6.0 mph9.7 kmh 29.83 in1010.2 mb 0.00 in0.0 mm 0.00 in0.0 mm 0.00 in0.0 mm
06:01 AM 52.2°F11.2°C 40.3°F4.6°C 64% 2.0 mph SW3.2 kmh SW 6.9 mph11.1 kmh 29.83 in1010.2 mb 0.00 in0.0 mm 0.00 in0.0 mm 0.00 in0.0 mm
06:11 AM 52.2°F11.2°C 39.9°F4.4°C 63% 2.9 mph SW4.7 kmh SW 8.1 mph13.0 kmh 29.83 in1010.2 mb 0.00 in0.0 mm 0.00 in0.0 mm 0.00 in0.0 mm
06:21 AM 52.2°F11.2°C 39.9°F4.4°C 63% 2.0 mph SW3.2 kmh SW 6.9 mph11.1 kmh 29.83 in1010.2 mb 0.00 in0.0 mm 0.00 in0.0 mm 0.00 in0.0 mm
06:31 AM 52.3°F11.3°C 40.1°F4.5°C 63% 2.9 mph WSW4.7 kmh WSW 8.1 mph13.0 kmh 29.83 in1010.2 mb 0.00 in0.0 mm 0.00 in0.0 mm 0.00 in0.0 mm
06:41 AM 52.9°F11.6°C 41.4°F5.2°C 65% 6.0 mph SW9.7 kmh SW 14.1 mph22.7 kmh 29.83 in1010.2 mb 0.00 in0.0 mm 0.00 in0.0 mm 0.00 in0.0 mm
06:51 AM 53.2°F11.8°C 41.4°F5.2°C 64% 6.9 mph WNW11.1 kmh WNW 16.1 mph25.9 kmh 29.84 in1010.5 mb 0.00 in0.0 mm 0.00 in0.0 mm 0.00 in0.0 mm
07:01 AM 53.4°F11.9°C 39.9°F4.4°C 60% 8.9 mph W14.3 kmh W 16.1 mph25.9 kmh 29.84 in1010.5 mb 0.00 in0.0 mm 0.00 in0.0 mm 0.00 in0.0 mm
07:11 AM 53.4°F11.9°C 39.0°F3.9°C 58% 6.9 mph W11.1 kmh W 17.0 mph27.4 kmh 29.85 in1010.8 mb 0.00 in0.0 mm 0.00 in0.0 mm 0.00 in0.0 mm
07:21 AM 53.2°F11.8°C 38.5°F3.6°C 57% 4.9 mph WSW7.9 kmh WSW 10.1 mph16.3 kmh 29.85 in1010.8 mb 0.00 in0.0 mm 0.00 in0.0 mm 0.00 in0.0 mm
07:31 AM 53.1°F11.7°C 38.3°F3.5°C 57% 4.0 mph NW6.4 kmh NW 11.0 mph17.7 kmh 29.86 in1011.2 mb 0.00 in0.0 mm 0.00 in0.0 mm 0.00 in0.0 mm
07:41 AM 53.6°F12.0°C 38.3°F3.5°C 56% 2.9 mph WSW4.7 kmh WSW 10.1 mph16.3 kmh 29.86 in1011.2 mb 0.00 in0.0 mm 0.00 in0.0 mm 0.00 in0.0 mm
07:51 AM 53.8°F12.1°C 37.6°F3.1°C 54% 4.9 mph WNW7.9 kmh WNW 13.0 mph20.9 kmh 29.87 in1011.5 mb 0.00 in0.0 mm 0.00 in0.0 mm 0.00 in0.0 mm
08:01 AM 54.5°F12.5°C 35.2°F1.8°C 48% 6.0 mph WNW9.7 kmh WNW 19.0 mph30.6 kmh 29.87 in1011.5 mb 0.00 in0.0 mm 0.00 in0.0 mm 0.00 in0.0 mm
08:11 AM 55.0°F12.8°C 32.9°F0.5°C 43% 8.9 mph W14.3 kmh W 17.0 mph27.4 kmh 29.87 in1011.5 mb 0.00 in0.0 mm 0.00 in0.0 mm 0.00 in0.0 mm
08:21 AM 54.7°F12.6°C 31.5°F-0.3°C 41% 11.0 mph W17.7 kmh W 22.0 mph35.4 kmh 29.88 in1011.9 mb 0.00 in0.0 mm 0.00 in0.0 mm 0.00 in0.0 mm
08:31 AM 54.7°F12.6°C 29.5°F-1.4°C 38% 10.1 mph NW16.3 kmh NW 19.0 mph30.6 kmh 29.88 in1011.9 mb 0.00 in0.0 mm 0.00 in0.0 mm 0.00 in0.0 mm
08:51 AM 55.0°F12.8°C 25.0°F-3.9°C 31% 11.0 mph NW17.7 kmh NW 22.0 mph35.4 kmh 29.89 in1012.2 mb 0.00 in0.0 mm 0.00 in0.0 mm 0.00 in0.0 mm
09:01 AM 55.0°F12.8°C 21.7°F-5.7°C 27% 11.0 mph W17.7 kmh W 21.0 mph33.8 kmh 29.90 in1012.5 mb 0.00 in0.0 mm 0.00 in0.0 mm 0.00 in0.0 mm
09:11 AM 54.9°F12.7°C 23.2°F-4.9°C 29% 11.0 mph W17.7 kmh W 21.0 mph33.8 kmh 29.90 in1012.5 mb 0.00 in0.0 mm 0.00 in0.0 mm 0.00 in0.0 mm
09:21 AM 55.4°F13.0°C 32.7°F0.4°C 42% 8.9 mph W14.3 kmh W 19.0 mph30.6 kmh 29.90 in1012.5 mb 0.00 in0.0 mm 0.00 in0.0 mm 0.00 in0.0 mm
09:31 AM 55.0°F12.8°C 29.8°F-1.2°C 38% 11.0 mph WNW17.7 kmh WNW 19.9 mph32.0 kmh 29.91 in1012.9 mb 0.00 in0.0 mm 0.00 in0.0 mm 0.00 in0.0 mm
09:41 AM 55.2°F12.9°C 33.1°F0.6°C 43% 8.9 mph NW14.3 kmh NW 20.0 mph32.2 kmh 29.91 in1012.9 mb 0.00 in0.0 mm 0.00 in0.0 mm 0.00 in0.0 mm
09:51 AM 55.0°F12.8°C 31.8°F-0.1°C 41% 12.1 mph NW19.5 kmh NW 21.0 mph33.8 kmh 29.92 in1013.2 mb 0.00 in0.0 mm 0.00 in0.0 mm 0.00 in0.0 mm
10:01 AM 55.2°F12.9°C 32.0°F0.0°C 41% 11.0 mph WNW17.7 kmh WNW 21.0 mph33.8 kmh 29.92 in1013.2 mb 0.00 in0.0 mm 0.00 in0.0 mm 0.00 in0.0 mm
10:11 AM 55.2°F12.9°C 30.7°F-0.7°C 39% 11.0 mph WNW17.7 kmh WNW 22.0 mph35.4 kmh 29.92 in1013.2 mb 0.00 in0.0 mm 0.00 in0.0 mm 0.00 in0.0 mm
10:21 AM 55.2°F12.9°C 29.5°F-1.4°C 37% 11.0 mph NW17.7 kmh NW 21.0 mph33.8 kmh 29.92 in1013.2 mb 0.00 in0.0 mm 0.00 in0.0 mm 0.00 in0.0 mm
10:31 AM 55.4°F13.0°C 28.9°F-1.7°C 36% 11.0 mph WSW17.7 kmh WSW 17.9 mph28.8 kmh 29.92 in1013.2 mb 0.00 in0.0 mm 0.00 in0.0 mm 0.00 in0.0 mm
10:41 AM 55.6°F13.1°C 29.1°F-1.6°C 36% 12.1 mph WSW19.5 kmh WSW 19.0 mph30.6 kmh 29.92 in1013.2 mb 0.00 in0.0 mm 0.00 in0.0 mm 0.00 in0.0 mm
10:51 AM 55.9°F13.3°C 28.8°F-1.8°C 35% 12.1 mph WNW19.5 kmh WNW 23.0 mph37.0 kmh 29.92 in1013.2 mb 0.00 in0.0 mm 0.00 in0.0 mm 0.00 in0.0 mm
11:01 AM 55.6°F13.1°C 29.1°F-1.6°C 36% 14.1 mph WNW22.7 kmh WNW 25.1 mph40.4 kmh 29.91 in1012.9 mb 0.00 in0.0 mm 0.00 in0.0 mm 0.00 in0.0 mm
11:11 AM 55.2°F12.9°C 29.5°F-1.4°C 37% 14.1 mph W22.7 kmh W 23.0 mph37.0 kmh 29.91 in1012.9 mb 0.00 in0.0 mm 0.00 in0.0 mm 0.00 in0.0 mm
11:21 AM 55.6°F13.1°C 29.7°F-1.3°C 37% 12.1 mph W19.5 kmh W 21.9 mph35.2 kmh 29.91 in1012.9 mb 0.00 in0.0 mm 0.00 in0.0 mm 0.00 in0.0 mm
11:31 AM 56.1°F13.4°C 32.2°F0.1°C 40% 11.0 mph WNW17.7 kmh WNW 17.9 mph28.8 kmh 29.91 in1012.9 mb 0.00 in0.0 mm 0.00 in0.0 mm 0.00 in0.0 mm
11:41 AM 55.9°F13.3°C 29.3°F-1.5°C 36% 12.1 mph W19.5 kmh W 19.0 mph30.6 kmh 29.91 in1012.9 mb 0.00 in0.0 mm 0.00 in0.0 mm 0.00 in0.0 mm
11:51 AM 55.9°F13.3°C 30.0°F-1.1°C 37% 11.0 mph NW17.7 kmh NW 17.9 mph28.8 kmh 29.90 in1012.5 mb 0.00 in0.0 mm 0.00 in0.0 mm 0.00 in0.0 mm
12:01 PM 55.9°F13.3°C 32.0°F0.0°C 40% 11.0 mph W17.7 kmh W 19.0 mph30.6 kmh 29.90 in1012.5 mb 0.00 in0.0 mm 0.00 in0.0 mm 0.00 in0.0 mm
12:11 PM 55.8°F13.2°C 28.6°F-1.9°C 35% 12.1 mph NW19.5 kmh NW 19.9 mph32.0 kmh 29.90 in1012.5 mb 0.00 in0.0 mm 0.00 in0.0 mm 0.00 in0.0 mm
12:21 PM 55.6°F13.1°C 29.7°F-1.3°C 37% 12.1 mph W19.5 kmh W 23.0 mph37.0 kmh 29.89 in1012.2 mb 0.00 in0.0 mm 0.00 in0.0 mm 0.00 in0.0 mm
12:31 PM 55.9°F13.3°C 33.3°F0.7°C 42% 12.1 mph W19.5 kmh W 23.0 mph37.0 kmh 29.89 in1012.2 mb 0.00 in0.0 mm 0.00 in0.0 mm 0.00 in0.0 mm
12:41 PM 56.1°F13.4°C 31.5°F-0.3°C 39% 12.1 mph WNW19.5 kmh WNW 23.9 mph38.5 kmh 29.89 in1012.2 mb 0.00 in0.0 mm 0.00 in0.0 mm 0.00 in0.0 mm
12:51 PM 56.1°F13.4°C 30.2°F-1.0°C 37% 13.0 mph W20.9 kmh W 23.9 mph38.5 kmh 29.89 in1012.2 mb 0.00 in0.0 mm 0.00 in0.0 mm 0.00 in0.0 mm
01:01 PM 55.9°F13.3°C 32.0°F0.0°C 40% 12.1 mph W19.5 kmh W 21.9 mph35.2 kmh 29.89 in1012.2 mb 0.00 in0.0 mm 0.00 in0.0 mm 0.00 in0.0 mm
01:11 PM 55.8°F13.2°C 34.2°F1.2°C 44% 11.0 mph W17.7 kmh W 21.9 mph35.2 kmh 29.89 in1012.2 mb 0.00 in0.0 mm 0.00 in0.0 mm 0.00 in0.0 mm
01:21 PM 56.1°F13.4°C 34.0°F1.1°C 43% 11.0 mph W17.7 kmh W 21.9 mph35.2 kmh 29.89 in1012.2 mb 0.00 in0.0 mm 0.00 in0.0 mm 0.00 in0.0 mm
01:31 PM 55.9°F13.3°C 32.5°F0.3°C 41% 12.1 mph W19.5 kmh W 23.0 mph37.0 kmh 29.89 in1012.2 mb 0.00 in0.0 mm 0.00 in0.0 mm 0.00 in0.0 mm
01:41 PM 56.5°F13.6°C 32.4°F0.2°C 40% 11.0 mph W17.7 kmh W 19.9 mph32.0 kmh 29.89 in1012.2 mb 0.00 in0.0 mm 0.00 in0.0 mm 0.00 in0.0 mm
01:51 PM 56.5°F13.6°C 32.4°F0.2°C 40% 11.0 mph WSW17.7 kmh WSW 22.0 mph35.4 kmh 29.89 in1012.2 mb 0.00 in0.0 mm 0.00 in0.0 mm 0.00 in0.0 mm
02:01 PM 56.7°F13.7°C 30.0°F-1.1°C 36% 11.0 mph WNW17.7 kmh WNW 20.0 mph32.2 kmh 29.89 in1012.2 mb 0.00 in0.0 mm 0.00 in0.0 mm 0.00 in0.0 mm
02:11 PM 55.9°F13.3°C 29.3°F-1.5°C 36% 15.0 mph W24.1 kmh W 25.1 mph40.4 kmh 29.88 in1011.9 mb 0.00 in0.0 mm 0.00 in0.0 mm 0.00 in0.0 mm
02:21 PM 55.9°F13.3°C 32.0°F0.0°C 40% 11.0 mph SW17.7 kmh SW 23.0 mph37.0 kmh 29.88 in1011.9 mb 0.00 in0.0 mm 0.00 in0.0 mm 0.00 in0.0 mm
02:31 PM 56.5°F13.6°C 31.1°F-0.5°C 38% 11.0 mph NW17.7 kmh NW 19.0 mph30.6 kmh 29.88 in1011.9 mb 0.00 in0.0 mm 0.00 in0.0 mm 0.00 in0.0 mm
02:41 PM 55.9°F13.3°C 30.7°F-0.7°C 38% 11.0 mph NW17.7 kmh NW 22.0 mph35.4 kmh 29.88 in1011.9 mb 0.00 in0.0 mm 0.00 in0.0 mm 0.00 in0.0 mm
02:51 PM 55.6°F13.1°C 34.5°F1.4°C 45% 12.1 mph WNW19.5 kmh WNW 24.0 mph38.6 kmh 29.88 in1011.9 mb 0.00 in0.0 mm 0.00 in0.0 mm 0.00 in0.0 mm
03:01 PM 55.2°F12.9°C 34.9°F1.6°C 46% 10.1 mph WSW16.3 kmh WSW 19.0 mph30.6 kmh 29.88 in1011.9 mb 0.00 in0.0 mm 0.00 in0.0 mm 0.00 in0.0 mm
03:11 PM 55.6°F13.1°C 34.5°F1.4°C 45% 10.1 mph WSW16.3 kmh WSW 19.9 mph32.0 kmh 29.88 in1011.9 mb 0.00 in0.0 mm 0.00 in0.0 mm 0.00 in0.0 mm
03:21 PM 55.0°F12.8°C 35.2°F1.8°C 47% 8.9 mph WNW14.3 kmh WNW 15.0 mph24.1 kmh 29.88 in1011.9 mb 0.00 in0.0 mm 0.00 in0.0 mm 0.00 in0.0 mm
03:31 PM 54.7°F12.6°C 36.3°F2.4°C 50% 8.9 mph WSW14.3 kmh WSW 17.0 mph27.4 kmh 29.88 in1011.9 mb 0.00 in0.0 mm 0.00 in0.0 mm 0.00 in0.0 mm
03:41 PM 54.3°F12.4°C 37.9°F3.3°C 54% 11.0 mph SW17.7 kmh SW 21.0 mph33.8 kmh 29.88 in1011.9 mb 0.00 in0.0 mm 0.00 in0.0 mm 0.00 in0.0 mm
03:51 PM 54.3°F12.4°C 37.9°F3.3°C 54% 10.1 mph WSW16.3 kmh WSW 21.0 mph33.8 kmh 29.88 in1011.9 mb 0.00 in0.0 mm 0.00 in0.0 mm 0.00 in0.0 mm
04:01 PM 54.7°F12.6°C 37.9°F3.3°C 53% 10.1 mph WSW16.3 kmh WSW 19.9 mph32.0 kmh 29.88 in1011.9 mb 0.00 in0.0 mm 0.00 in0.0 mm 0.00 in0.0 mm
04:11 PM 54.3°F12.4°C 38.5°F3.6°C 55% 12.1 mph W19.5 kmh W 19.9 mph32.0 kmh 29.88 in1011.9 mb 0.00 in0.0 mm 0.00 in0.0 mm 0.00 in0.0 mm
04:21 PM 54.1°F12.3°C 38.3°F3.5°C 55% 10.1 mph WSW16.3 kmh WSW 21.9 mph35.2 kmh 29.88 in1011.9 mb 0.00 in0.0 mm 0.00 in0.0 mm 0.00 in0.0 mm
04:31 PM 54.1°F12.3°C 38.3°F3.5°C 55% 8.9 mph WSW14.3 kmh WSW 19.9 mph32.0 kmh 29.88 in1011.9 mb 0.00 in0.0 mm 0.00 in0.0 mm 0.00 in0.0 mm
04:41 PM 53.8°F12.1°C 37.6°F3.1°C 54% 8.9 mph W14.3 kmh W 25.9 mph41.7 kmh 29.88 in1011.9 mb 0.00 in0.0 mm 0.00 in0.0 mm 0.00 in0.0 mm
04:51 PM 53.4°F11.9°C 38.1°F3.4°C 56% 11.0 mph SW17.7 kmh SW 21.0 mph33.8 kmh 29.88 in1011.9 mb 0.00 in0.0 mm 0.00 in0.0 mm 0.00 in0.0 mm
05:02 PM 53.4°F11.9°C 34.7°F1.5°C 49% 10.1 mph WNW16.3 kmh WNW 19.9 mph32.0 kmh 29.88 in1011.9 mb 0.00 in0.0 mm 0.00 in0.0 mm 0.00 in0.0 mm
05:12 PM 53.2°F11.8°C 35.1°F1.7°C 50% 11.0 mph WSW17.7 kmh WSW 18.0 mph29.0 kmh 29.88 in1011.9 mb 0.00 in0.0 mm 0.00 in0.0 mm 0.00 in0.0 mm
05:22 PM 52.9°F11.6°C 35.8°F2.1°C 52% 8.9 mph WNW14.3 kmh WNW 19.0 mph30.6 kmh 29.88 in1011.9 mb 0.00 in0.0 mm 0.00 in0.0 mm 0.00 in0.0 mm
05:32 PM 52.5°F11.4°C 36.9°F2.7°C 55% 8.1 mph W13.0 kmh W 20.0 mph32.2 kmh 29.88 in1011.9 mb 0.00 in0.0 mm 0.00 in0.0 mm 0.00 in0.0 mm
05:42 PM 52.3°F11.3°C 36.7°F2.6°C 55% 10.1 mph NW16.3 kmh NW 15.0 mph24.1 kmh 29.88 in1011.9 mb 0.00 in0.0 mm 0.00 in0.0 mm 0.00 in0.0 mm
05:52 PM 52.3°F11.3°C 37.9°F3.3°C 58% 8.9 mph W14.3 kmh W 19.9 mph32.0 kmh 29.89 in1012.2 mb 0.00 in0.0 mm 0.00 in0.0 mm 0.00 in0.0 mm
06:02 PM 52.3°F11.3°C 37.9°F3.3°C 58% 8.1 mph W13.0 kmh W 16.1 mph25.9 kmh 29.89 in1012.2 mb 0.00 in0.0 mm 0.00 in0.0 mm 0.00 in0.0 mm
06:12 PM 52.3°F11.3°C 37.9°F3.3°C 58% 8.1 mph WNW13.0 kmh WNW 16.1 mph25.9 kmh 29.89 in1012.2 mb 0.00 in0.0 mm 0.00 in0.0 mm 0.00 in0.0 mm
06:22 PM 52.3°F11.3°C 37.6°F3.1°C 57% 8.1 mph WNW13.0 kmh WNW 17.9 mph28.8 kmh 29.90 in1012.5 mb 0.00 in0.0 mm 0.00 in0.0 mm 0.00 in0.0 mm
06:32 PM 52.0°F11.1°C 38.1°F3.4°C 59% 6.9 mph W11.1 kmh W 12.1 mph19.5 kmh 29.90 in1012.5 mb 0.00 in0.0 mm 0.00 in0.0 mm 0.00 in0.0 mm
06:42 PM 52.0°F11.1°C 37.2°F2.9°C 57% 4.9 mph NW7.9 kmh NW 11.0 mph17.7 kmh 29.90 in1012.5 mb 0.00 in0.0 mm 0.00 in0.0 mm 0.00 in0.0 mm
06:52 PM 52.0°F11.1°C 36.9°F2.7°C 56% 4.0 mph NW6.4 kmh NW 8.1 mph13.0 kmh 29.90 in1012.5 mb 0.00 in0.0 mm 0.00 in0.0 mm 0.00 in0.0 mm
07:02 PM 51.8°F11.0°C 36.1°F2.3°C 55% 2.9 mph WNW4.7 kmh WNW 6.0 mph9.7 kmh 29.90 in1012.5 mb 0.00 in0.0 mm 0.00 in0.0 mm 0.00 in0.0 mm
07:12 PM 51.6°F10.9°C 36.0°F2.2°C 55% 2.0 mph WNW3.2 kmh WNW 6.9 mph11.1 kmh 29.91 in1012.9 mb 0.00 in0.0 mm 0.00 in0.0 mm 0.00 in0.0 mm
07:22 PM 51.8°F11.0°C 36.1°F2.3°C 55% 4.9 mph WNW7.9 kmh WNW 10.1 mph16.3 kmh 29.91 in1012.9 mb 0.00 in0.0 mm 0.00 in0.0 mm 0.00 in0.0 mm
07:32 PM 51.6°F10.9°C 36.0°F2.2°C 55% 4.0 mph WNW6.4 kmh WNW 8.1 mph13.0 kmh 29.91 in1012.9 mb 0.00 in0.0 mm 0.00 in0.0 mm 0.00 in0.0 mm
07:42 PM 51.3°F10.7°C 35.6°F2.0°C 55% 4.0 mph WNW6.4 kmh WNW 8.1 mph13.0 kmh 29.91 in1012.9 mb 0.00 in0.0 mm 0.00 in0.0 mm 0.00 in0.0 mm
07:52 PM 51.3°F10.7°C 35.6°F2.0°C 55% 4.9 mph NW7.9 kmh NW 8.1 mph13.0 kmh 29.91 in1012.9 mb 0.00 in0.0 mm 0.00 in0.0 mm 0.00 in0.0 mm
08:02 PM 50.9°F10.5°C 35.8°F2.1°C 56% 2.9 mph WNW4.7 kmh WNW 6.0 mph9.7 kmh 29.92 in1013.2 mb 0.00 in0.0 mm 0.00 in0.0 mm 0.00 in0.0 mm
08:12 PM 50.5°F10.3°C 35.4°F1.9°C 56% 0.9 mph W1.4 kmh W 2.9 mph4.7 kmh 29.92 in1013.2 mb 0.00 in0.0 mm 0.00 in0.0 mm 0.00 in0.0 mm
08:22 PM 49.6°F9.8°C 35.4°F1.9°C 58% Calm Calm 2.0 mph3.2 kmh 29.92 in1013.2 mb 0.00 in0.0 mm 0.00 in0.0 mm 0.00 in0.0 mm
08:32 PM 48.0°F8.9°C 35.6°F2.0°C 62% Calm Calm 0.9 mph1.4 kmh 29.93 in1013.5 mb 0.00 in0.0 mm 0.00 in0.0 mm 0.00 in0.0 mm
08:42 PM 47.1°F8.4°C 35.2°F1.8°C 63% Calm Calm 0.9 mph1.4 kmh 29.93 in1013.5 mb 0.00 in0.0 mm 0.00 in0.0 mm 0.00 in0.0 mm
08:52 PM 46.4°F8.0°C 35.2°F1.8°C 65% Calm Calm 1.0 mph1.6 kmh 29.93 in1013.5 mb 0.00 in0.0 mm 0.00 in0.0 mm 0.00 in0.0 mm
09:02 PM 46.0°F7.8°C 34.9°F1.6°C 65% Calm Calm 0.9 mph1.4 kmh 29.94 in1013.9 mb 0.00 in0.0 mm 0.00 in0.0 mm 0.00 in0.0 mm
09:12 PM 45.0°F7.2°C 34.7°F1.5°C 67% Calm Calm 0.9 mph1.4 kmh 29.95 in1014.2 mb 0.00 in0.0 mm 0.00 in0.0 mm 0.00 in0.0 mm
09:22 PM 43.9°F6.6°C 34.0°F1.1°C 68% Calm Calm 0.9 mph1.4 kmh 29.95 in1014.2 mb 0.00 in0.0 mm 0.00 in0.0 mm 0.00 in0.0 mm
09:32 PM 43.7°F6.5°C 34.2°F1.2°C 69% Calm Calm 0.9 mph1.4 kmh 29.96 in1014.6 mb 0.00 in0.0 mm 0.00 in0.0 mm 0.00 in0.0 mm
09:42 PM 42.4°F5.8°C 33.4°F0.8°C 70% Calm Calm 0.9 mph1.4 kmh 29.96 in1014.6 mb 0.00 in0.0 mm 0.00 in0.0 mm 0.00 in0.0 mm
09:52 PM 42.1°F5.6°C 33.4°F0.8°C 71% 0.9 mph SSE1.4 kmh SSE 2.0 mph3.2 kmh 29.96 in1014.6 mb 0.00 in0.0 mm 0.00 in0.0 mm 0.00 in0.0 mm
10:02 PM 41.5°F5.3°C 33.3°F0.7°C 72% 0.9 mph ESE1.4 kmh ESE 2.0 mph3.2 kmh 29.97 in1014.9 mb 0.00 in0.0 mm 0.00 in0.0 mm 0.00 in0.0 mm
10:12 PM 41.9°F5.5°C 32.5°F0.3°C 69% Calm Calm 2.0 mph3.2 kmh 29.97 in1014.9 mb 0.00 in0.0 mm 0.00 in0.0 mm 0.00 in0.0 mm
10:22 PM 41.9°F5.5°C 31.5°F-0.3°C 66% Calm Calm 0.9 mph1.4 kmh 29.97 in1014.9 mb 0.00 in0.0 mm 0.00 in0.0 mm 0.00 in0.0 mm
10:32 PM 40.8°F4.9°C 31.1°F-0.5°C 68% Calm Calm -- 29.98 in1015.2 mb 0.00 in0.0 mm 0.00 in0.0 mm 0.00 in0.0 mm
10:42 PM 39.9°F4.4°C 30.9°F-0.6°C 70% Calm Calm -- 29.98 in1015.2 mb 0.00 in0.0 mm 0.00 in0.0 mm 0.00 in0.0 mm
10:52 PM 39.0°F3.9°C 30.7°F-0.7°C 72% Calm Calm 2.9 mph4.7 kmh 29.99 in1015.6 mb 0.00 in0.0 mm 0.00 in0.0 mm 0.00 in0.0 mm
11:02 PM 39.6°F4.2°C 30.2°F-1.0°C 69% Calm Calm 0.9 mph1.4 kmh 29.99 in1015.6 mb 0.00 in0.0 mm 0.00 in0.0 mm 0.00 in0.0 mm
11:12 PM 38.7°F3.7°C 29.3°F-1.5°C 69% 0.9 mph ESE1.4 kmh ESE 2.0 mph3.2 kmh 30.00 in1015.9 mb 0.00 in0.0 mm 0.00 in0.0 mm 0.00 in0.0 mm
11:22 PM 38.5°F3.6°C 28.8°F-1.8°C 68% 0.9 mph SE1.4 kmh SE 2.0 mph3.2 kmh 30.01 in1016.3 mb 0.00 in0.0 mm 0.00 in0.0 mm 0.00 in0.0 mm
11:32 PM 38.7°F3.7°C 27.9°F-2.3°C 65% 0.9 mph ESE1.4 kmh ESE 2.0 mph3.2 kmh 30.01 in1016.3 mb 0.00 in0.0 mm 0.00 in0.0 mm 0.00 in0.0 mm
11:42 PM 39.7°F4.3°C 27.3°F-2.6°C 61% 2.0 mph NE3.2 kmh NE 4.0 mph6.4 kmh 30.01 in1016.3 mb 0.00 in0.0 mm 0.00 in0.0 mm 0.00 in0.0 mm
11:52 PM 38.7°F3.7°C 27.5°F-2.5°C 64% 2.0 mph ENE3.2 kmh ENE 5.0 mph8.0 kmh 30.02 in1016.6 mb 0.00 in0.0 mm 0.00 in0.0 mm 0.00 in0.0 mm